Time;durP1;ratioP1;P1;durP2;ratioP2;P2;SDS_P1;SDS_P2;PMS_P1;PMS_P2;Temp;Humidity;BMP_temperature;BMP_pressure;BME280_temperature;BME280_humidity;BME280_pressure;Samples;Min_cycle;Max_cycle;Signal;HPM_P1;HPM_P2
2022/03/13 00:00:59;;;;;;;21.13;18.37;;;1.70;99.60;;;2.50;66.15;97884.06;5203349;28;20574;-56
2022/03/13 00:03:33;;;;;;;23.43;18.53;;;1.60;99.50;;;2.49;65.81;97887.34;5205569;28;20244;-58
2022/03/13 00:06:09;;;;;;;22.20;18.80;;;1.50;99.50;;;2.38;66.09;97893.09;5205732;28;20233;-57
2022/03/13 00:08:54;;;;;;;21.50;18.57;;;1.40;99.80;;;2.37;66.10;97886.25;5205952;28;20322;-55
2022/03/13 00:11:29;;;;;;;20.33;17.33;;;1.50;99.80;;;2.39;65.95;97890.69;5198880;28;20200;-57
2022/03/13 00:14:05;;;;;;;20.83;17.93;;;1.50;99.60;;;2.40;65.91;97887.41;5205605;28;20216;-53
2022/03/13 00:16:38;;;;;;;22.37;18.13;;;1.50;99.80;;;2.38;66.50;97893.09;5206121;28;20199;-55
2022/03/13 00:19:12;;;;;;;21.80;19.20;;;1.40;99.70;;;2.46;67.10;97887.97;5201759;28;20235;-58
2022/03/13 00:21:52;;;;;;;24.07;18.77;;;1.50;99.90;;;2.35;66.91;97893.69;5204963;28;20228;-56
2022/03/13 00:24:26;;;;;;;23.77;20.17;;;1.50;99.90;;;2.27;67.35;97887.09;5204467;28;20199;-57
2022/03/13 00:27:00;;;;;;;22.73;18.80;;;1.40;99.70;;;2.28;66.14;97882.91;5205140;28;20224;-56
2022/03/13 00:29:34;;;;;;;20.53;17.80;;;1.40;99.60;;;2.21;66.17;97878.97;5204849;28;20308;-57
2022/03/13 00:32:08;;;;;;;22.83;17.57;;;1.30;99.10;;;2.14;66.17;97886.72;5205190;28;20200;-57
2022/03/13 00:34:41;;;;;;;18.70;16.60;;;1.20;99.90;;;2.05;66.11;97881.75;5204341;28;20202;-56
2022/03/13 00:37:14;;;;;;;20.53;16.87;;;1.10;99.60;;;2.05;66.48;97886.78;5205142;28;20199;-55
2022/03/13 00:39:51;;;;;;;20.70;17.13;;;1.20;99.80;;;2.01;66.05;97882.22;5204595;28;20272;-56
2022/03/13 00:42:24;;;;;;;19.63;16.93;;;1.10;99.40;;;1.81;66.10;97890.50;5205498;28;20676;-56
2022/03/13 00:44:58;;;;;;;19.67;16.77;;;1.00;99.30;;;1.69;65.54;97874.25;5205327;28;20252;-54
2022/03/13 00:47:31;;;;;;;18.27;15.87;;;0.90;99.00;;;1.82;65.93;97877.16;5203967;28;20212;-56
2022/03/13 00:50:06;;;;;;;17.70;15.57;;;0.90;99.70;;;1.83;66.10;97878.91;5203825;28;20218;-56
2022/03/13 00:52:39;;;;;;;19.63;15.73;;;0.90;99.80;;;1.93;65.81;97878.13;5205368;28;20203;-56
2022/03/13 00:55:14;;;;;;;20.87;16.37;;;1.00;99.90;;;1.84;66.36;97870.63;5204823;28;20209;-55
2022/03/13 00:57:47;;;;;;;21.57;16.37;;;0.90;99.40;;;1.57;66.01;97872.41;5202158;28;20194;-55
2022/03/13 01:00:20;;;;;;;17.67;15.27;;;0.80;99.30;;;1.58;66.49;97870.78;5205610;28;20207;-57
2022/03/13 01:02:53;;;;;;;17.20;15.47;;;0.70;99.80;;;1.59;66.06;97872.53;5204948;28;20192;-57
2022/03/13 01:05:28;;;;;;;18.10;15.70;;;0.80;99.10;;;1.63;65.60;97867.06;5204459;28;20228;-57
2022/03/13 01:08:01;;;;;;;18.80;15.07;;;0.90;98.90;;;1.74;65.23;97868.88;5204181;28;20226;-56
2022/03/13 01:10:36;;;;;;;20.27;16.33;;;1.00;98.40;;;1.84;65.43;97862.19;5204797;28;20202;-57
2022/03/13 01:13:09;;;;;;;17.33;14.93;;;1.10;99.20;;;1.89;65.39;97858.44;5204393;28;20197;-54
2022/03/13 01:15:42;;;;;;;18.53;16.53;;;1.00;99.30;;;1.87;65.58;97862.47;5204864;28;20713;-55
2022/03/13 01:18:16;;;;;;;17.73;15.63;;;1.00;99.20;;;1.86;64.77;97860.66;5203096;28;20232;-57
2022/03/13 01:20:49;;;;;;;18.20;15.30;;;1.10;98.30;;;1.82;64.88;97862.03;5204925;28;20284;-57
2022/03/13 01:23:23;;;;;;;19.03;16.07;;;1.00;98.90;;;1.75;66.73;97855.56;5204637;28;20204;-57
2022/03/13 01:26:36;;;;;;;16.90;14.87;;;0.90;99.50;;;1.80;66.21;97859.41;5203824;28;20738;-57
2022/03/13 01:29:12;;;;;;;15.33;13.73;;;0.90;99.50;;;1.84;65.51;97849.59;5204121;28;20248;-55
2022/03/13 01:31:50;;;;;;;15.27;13.67;;;0.90;99.40;;;1.92;65.55;97853.69;5200973;28;20568;-57
2022/03/13 01:34:50;;;;;;;16.17;14.53;;;1.00;99.30;;;1.82;65.37;97841.00;5203709;28;20500;-57
2022/03/13 01:37:33;;;;;;;16.73;14.80;;;0.90;99.20;;;1.70;65.52;97850.84;5203202;28;20268;-54
2022/03/13 01:40:10;;;;;;;17.10;15.30;;;0.80;98.90;;;1.63;66.27;97853.56;5203665;28;20198;-57
2022/03/13 01:42:45;;;;;;;16.53;14.53;;;0.90;99.40;;;1.70;66.13;97846.69;5204329;28;20201;-56
2022/03/13 01:45:20;;;;;;;16.93;15.13;;;0.90;99.10;;;1.77;65.39;97850.66;5202402;28;20253;-57
2022/03/13 01:47:53;;;;;;;17.57;14.00;;;0.80;99.20;;;1.72;65.65;97849.38;5203433;28;20198;-58
2022/03/13 01:50:27;;;;;;;15.47;13.70;;;0.70;99.50;;;1.70;65.67;97846.69;5203330;28;20210;-57
2022/03/13 01:53:00;;;;;;;15.97;14.27;;;0.70;99.40;;;1.62;66.58;97851.78;5204338;28;20202;-53
2022/03/13 01:55:33;;;;;;;15.73;14.13;;;0.70;99.80;;;1.62;65.98;97842.59;5204253;28;20198;-55
2022/03/13 01:58:07;;;;;;;17.23;14.07;;;0.70;99.40;;;1.54;66.38;97849.44;5203604;28;20218;-54
2022/03/13 02:00:40;;;;;;;17.33;13.53;;;0.70;99.40;;;1.55;66.31;97851.25;5203608;28;20204;-54
2022/03/13 02:03:16;;;;;;;14.83;13.20;;;0.60;99.70;;;1.54;66.29;97853.59;5201242;28;20210;-53
2022/03/13 02:05:49;;;;;;;16.63;13.93;;;0.60;99.70;;;1.52;66.27;97842.53;5200523;28;20205;-57
2022/03/13 02:08:24;;;;;;;14.60;13.03;;;0.60;99.80;;;1.51;66.22;97853.31;5203895;28;20244;-55
2022/03/13 02:10:59;;;;;;;14.63;12.87;;;0.50;99.90;;;1.48;66.89;97850.53;5203593;28;20193;-56
2022/03/13 02:13:34;;;;;;;14.93;13.20;;;0.50;99.90;;;1.41;66.99;97843.19;5203563;28;20197;-55
2022/03/13 02:16:08;;;;;;;15.70;13.53;;;0.50;99.90;;;1.43;67.50;97846.69;5200666;28;20200;-55
2022/03/13 02:18:42;;;;;;;14.53;12.60;;;0.50;99.90;;;1.31;67.19;97838.91;5203944;28;20218;-53
2022/03/13 02:21:16;;;;;;;14.30;12.87;;;0.50;99.90;;;1.34;67.58;97840.09;5200803;28;20212;-53
2022/03/13 02:23:51;;;;;;;14.37;12.87;;;0.40;99.90;;;1.29;67.13;97831.22;5202066;28;20193;-54
2022/03/13 02:26:24;;;;;;;15.23;13.63;;;0.40;99.90;;;1.11;67.04;97829.53;5203390;28;20240;-53
2022/03/13 02:28:57;;;;;;;14.17;12.77;;;0.20;99.80;;;1.13;66.78;97833.06;5201518;28;20222;-57
2022/03/13 02:31:35;;;;;;;13.93;12.33;;;0.20;99.90;;;1.01;66.34;97821.88;5202606;28;20208;-55
2022/03/13 02:34:12;;;;;;;16.97;13.27;;;0.20;99.80;;;0.91;66.50;97830.19;5203897;28;20229;-56
2022/03/13 02:37:04;;;;;;;14.00;12.60;;;0.10;99.90;;;0.99;67.06;97828.41;5203566;28;20205;-54
2022/03/13 02:39:38;;;;;;;13.60;12.13;;;0.10;99.70;;;0.92;66.18;97823.53;5202968;28;20670;-53
2022/03/13 02:42:12;;;;;;;15.47;12.67;;;0.10;99.30;;;0.95;66.25;97816.28;5203669;28;20212;-56
2022/03/13 02:44:45;;;;;;;13.73;12.23;;;0.20;99.20;;;0.99;64.89;97818.31;5203226;28;20217;-53
2022/03/13 02:47:18;;;;;;;15.07;12.43;;;0.30;98.10;;;1.05;64.93;97814.75;5205768;28;20222;-54
2022/03/13 02:49:51;;;;;;;14.10;12.60;;;0.40;98.20;;;1.09;64.80;97820.97;5206659;28;20214;-54
2022/03/13 02:52:24;;;;;;;14.30;11.70;;;0.50;98.20;;;1.23;64.68;97835.72;5207226;28;20609;-53
2022/03/13 02:54:58;;;;;;;12.77;11.23;;;0.50;98.20;;;1.29;65.20;97831.22;5207984;28;20194;-54
2022/03/13 02:57:31;;;;;;;13.37;11.97;;;0.50;98.70;;;1.34;65.17;97834.16;5207695;28;20198;-53
2022/03/13 03:00:08;;;;;;;14.17;12.77;;;0.40;98.90;;;1.36;64.77;97837.72;5207106;28;20241;-54
2022/03/13 03:02:41;;;;;;;14.73;12.40;;;0.30;99.30;;;1.29;65.26;97831.22;5206958;28;20202;-54
2022/03/13 03:05:15;;;;;;;13.30;11.97;;;0.30;99.30;;;1.21;66.13;97833.78;5207493;28;20205;-52
2022/03/13 03:07:49;;;;;;;14.63;13.13;;;0.30;99.80;;;1.16;66.23;97823.28;5207162;28;20221;-55
2022/03/13 03:10:23;;;;;;;14.13;12.73;;;0.20;99.60;;;1.11;66.75;97829.53;5207240;28;20205;-53
2022/03/13 03:12:56;;;;;;;13.63;12.20;;;0.20;99.90;;;1.15;66.01;97834.13;5207168;28;20207;-54
2022/03/13 03:15:30;;;;;;;13.57;11.63;;;0.20;99.80;;;1.17;66.41;97829.19;5207457;28;20198;-57
2022/03/13 03:18:05;;;;;;;14.47;12.90;;;0.20;99.90;;;1.04;67.00;97833.13;5203937;28;20325;-57
2022/03/13 03:20:39;;;;;;;13.83;12.37;;;0.10;99.90;;;1.08;65.95;97826.72;5206487;28;20202;-56
2022/03/13 03:23:12;;;;;;;13.03;11.67;;;0.10;99.80;;;0.95;65.84;97824.72;5206363;28;20206;-58
2022/03/13 03:25:46;;;;;;;16.70;14.97;;;0.00;98.90;;;0.70;63.64;97826.56;5206326;28;20201;-57
2022/03/13 03:28:22;;;;;;;14.20;12.80;;;-0.20;98.30;;;0.66;64.92;97839.59;5205674;28;20225;-56
2022/03/13 03:30:55;;;;;;;15.73;12.70;;;-0.20;98.90;;;0.74;65.48;97840.31;5203713;28;20204;-57
2022/03/13 03:33:28;;;;;;;12.87;11.60;;;-0.10;99.00;;;0.81;65.52;97837.63;5206446;28;21774;-57
2022/03/13 03:36:01;;;;;;;13.03;11.77;;;0.00;98.80;;;0.76;64.79;97839.72;5206583;28;20662;-56
2022/03/13 03:38:35;;;;;;;11.70;10.53;;;0.00;98.50;;;0.78;65.06;97833.19;5206606;28;20224;-55
2022/03/13 03:41:09;;;;;;;14.20;12.27;;;0.00;98.60;;;0.79;65.14;97834.97;5206134;28;20531;-55
2022/03/13 03:43:42;;;;;;;12.80;11.57;;;0.00;98.60;;;0.75;64.58;97827.88;5206538;28;20190;-56
2022/03/13 03:46:18;;;;;;;13.43;12.03;;;0.00;98.40;;;0.74;65.55;97842.81;5207805;28;20284;-55
2022/03/13 03:48:52;;;;;;;13.17;11.70;;;0.00;98.60;;;0.75;65.77;97842.09;5206322;28;20697;-55
2022/03/13 03:51:25;;;;;;;13.40;11.93;;;0.00;99.00;;;0.75;65.92;97842.09;5206242;28;20800;-57
2022/03/13 03:53:58;;;;;;;13.37;11.77;;;-0.10;99.00;;;0.75;66.02;97835.44;5206344;28;20202;-57
2022/03/13 03:56:33;;;;;;;13.90;12.30;;;-0.10;99.10;;;0.72;65.43;97840.19;5206021;28;20197;-57
2022/03/13 03:59:06;;;;;;;13.90;12.33;;;-0.10;99.10;;;0.71;65.98;97835.00;5205661;28;20221;-57
2022/03/13 04:01:41;;;;;;;11.60;10.40;;;-0.10;99.10;;;0.68;66.08;97836.47;5205811;28;20202;-56
2022/03/13 04:04:21;;;;;;;12.87;11.60;;;-0.10;98.80;;;0.64;64.27;97833.53;5203600;28;20242;-57
2022/03/13 04:06:54;;;;;;;13.13;11.83;;;-0.20;98.20;;;0.71;64.91;97833.34;5204101;28;20345;-56
2022/03/13 04:09:27;;;;;;;14.67;11.83;;;-0.20;98.90;;;0.65;64.86;97832.78;5206166;28;20713;-57
2022/03/13 04:12:05;;;;;;;14.17;11.50;;;-0.20;98.80;;;0.56;64.59;97830.28;5205059;28;20194;-54
2022/03/13 04:14:38;;;;;;;12.83;11.20;;;-0.20;98.20;;;0.57;64.36;97836.19;5204806;28;20197;-54
2022/03/13 04:17:11;;;;;;;11.77;10.57;;;-0.20;98.10;;;0.57;64.73;97831.16;5205506;28;20202;-55
2022/03/13 04:19:44;;;;;;;16.67;12.53;;;-0.30;98.20;;;0.61;64.06;97830.72;5205670;28;20224;-55
2022/03/13 04:22:18;;;;;;;13.20;11.63;;;-0.20;98.10;;;0.57;64.71;97836.19;5202483;28;20205;-55
2022/03/13 04:24:51;;;;;;;12.47;11.27;;;-0.20;98.10;;;0.61;64.71;97833.25;5202980;28;20676;-57
2022/03/13 04:27:27;;;;;;;13.27;11.90;;;-0.20;98.40;;;0.61;64.97;97831.63;5203311;28;20225;-57
2022/03/13 04:30:00;;;;;;;12.93;11.67;;;-0.10;98.10;;;0.60;64.75;97826.44;5203379;28;20228;-57
2022/03/13 04:32:33;;;;;;;11.83;10.57;;;-0.20;98.10;;;0.58;63.42;97828.81;5202468;28;20579;-57
2022/03/13 04:35:07;;;;;;;12.30;10.23;;;-0.20;96.90;;;0.56;62.97;97829.41;5203832;28;20201;-57
2022/03/13 04:37:40;;;;;;;11.37;10.20;;;-0.20;96.80;;;0.54;61.74;97835.91;5203675;28;20205;-54
2022/03/13 04:40:19;;;;;;;9.23;8.33;;;-0.20;96.50;;;0.54;62.15;97826.72;5201068;28;20570;-56
2022/03/13 04:42:54;;;;;;;11.37;10.27;;;-0.20;96.70;;;0.55;62.76;97827.66;5201756;28;20586;-56
2022/03/13 04:45:27;;;;;;;11.20;10.10;;;-0.20;96.90;;;0.52;62.65;97830.75;5202243;28;20208;-57
2022/03/13 04:48:00;;;;;;;13.07;11.77;;;-0.20;96.80;;;0.53;63.35;97836.66;5204998;28;20217;-56
2022/03/13 04:50:33;;;;;;;12.83;11.33;;;-0.30;97.30;;;0.48;62.37;97833.69;5203420;28;20210;-57
2022/03/13 04:53:07;;;;;;;12.80;11.47;;;-0.30;97.00;;;0.40;61.96;97845.56;5203726;28;20202;-58
2022/03/13 04:55:40;;;;;;;12.57;11.20;;;-0.40;97.20;;;0.34;63.48;97849.97;5204750;28;20649;-57
2022/03/13 04:58:20;;;;;;;13.87;11.40;;;-0.50;97.60;;;0.31;63.69;97843.78;5202863;28;20225;-55
2022/03/13 05:00:53;;;;;;;12.47;11.20;;;-0.50;97.40;;;0.30;63.76;97842.91;5203265;28;20578;-56
2022/03/13 05:03:27;;;;;;;13.73;12.33;;;-0.40;97.60;;;0.30;63.19;97839.50;5202430;28;20709;-55
2022/03/13 05:06:00;;;;;;;14.40;13.00;;;-0.50;97.50;;;0.38;64.80;97849.53;5202379;28;20214;-58
2022/03/13 05:08:34;;;;;;;14.13;12.60;;;-0.40;98.10;;;0.32;63.68;97846.44;5203486;28;20701;-57
2022/03/13 05:11:07;;;;;;;14.50;13.10;;;-0.50;98.10;;;0.16;64.60;97845.72;5203690;28;20297;-58
2022/03/13 05:13:42;;;;;;;14.67;13.07;;;-0.50;98.20;;;0.16;64.59;97860.78;5203442;28;20596;-58
2022/03/13 05:16:19;;;;;;;14.10;12.70;;;-0.60;98.40;;;0.17;64.53;97857.53;5200294;28;20208;-58
2022/03/13 05:18:52;;;;;;;14.00;12.50;;;-0.60;98.40;;;0.11;65.46;97857.81;5203389;28;20577;-57
2022/03/13 05:21:25;;;;;;;13.43;12.13;;;-0.60;98.30;;;0.17;64.90;97867.56;5202991;28;20208;-57
2022/03/13 05:23:58;;;;;;;14.53;13.03;;;-0.60;98.20;;;0.09;65.89;97863.47;5203628;28;20198;-58
2022/03/13 05:26:32;;;;;;;14.20;12.80;;;-0.60;98.60;;;0.08;64.46;97859.16;5201867;28;20216;-57
2022/03/13 05:29:07;;;;;;;14.97;13.57;;;-0.60;98.40;;;0.02;64.26;97861.97;5203574;28;20623;-57
2022/03/13 05:31:40;;;;;;;14.50;12.57;;;-0.60;98.20;;;0.08;64.23;97875.13;5201614;28;20205;-57
2022/03/13 05:34:19;;;;;;;14.07;12.67;;;-0.60;98.10;;;0.06;64.64;97873.19;5201078;28;20198;-58
2022/03/13 05:36:52;;;;;;;12.87;11.60;;;-0.70;98.00;;;0.02;65.12;97876.16;5203551;28;20616;-58
2022/03/13 05:39:26;;;;;;;13.03;11.63;;;-0.70;98.10;;;0.07;64.70;97877.50;5201673;28;20228;-57
2022/03/13 05:41:59;;;;;;;14.33;12.10;;;-0.60;98.30;;;0.12;64.90;97878.84;5203061;28;20217;-56
2022/03/13 05:44:36;;;;;;;13.73;12.33;;;-0.60;98.20;;;0.08;64.74;97881.78;5203559;28;20232;-56
2022/03/13 05:47:09;;;;;;;15.00;12.97;;;-0.60;98.10;;;0.07;65.37;97885.03;5203444;28;20221;-56
2022/03/13 05:49:44;;;;;;;14.20;12.80;;;-0.60;98.10;;;0.10;64.58;97881.19;5202112;28;20222;-55
2022/03/13 05:52:17;;;;;;;14.20;12.80;;;-0.60;98.00;;;0.09;64.03;97889.47;5201559;28;20573;-57
2022/03/13 05:54:50;;;;;;;13.53;12.23;;;-0.60;98.00;;;0.13;65.16;97888.13;5202634;28;20194;-56
2022/03/13 05:57:23;;;;;;;14.77;13.23;;;-0.60;97.90;;;0.17;63.50;97892.72;5200782;28;20201;-54
2022/03/13 05:59:57;;;;;;;13.23;11.93;;;-0.50;97.80;;;0.26;64.24;97888.59;5200646;28;20230;-56
2022/03/13 06:02:31;;;;;;;13.93;12.60;;;-0.50;97.90;;;0.27;64.14;97899.53;5201829;28;20208;-56
2022/03/13 06:05:06;;;;;;;14.67;12.73;;;-0.50;97.90;;;0.31;63.36;97897.44;5203220;28;20248;-56
2022/03/13 06:07:40;;;;;;;13.53;11.90;;;-0.40;97.50;;;0.38;63.24;97898.94;5203083;28;20232;-57
2022/03/13 06:10:19;;;;;;;15.00;13.17;;;-0.30;97.50;;;0.36;63.69;97906.31;5201952;28;20193;-56
2022/03/13 06:12:53;;;;;;;12.27;11.17;;;-0.30;97.40;;;0.44;63.35;97902.03;5203826;28;20197;-55
2022/03/13 06:15:29;;;;;;;13.57;12.17;;;-0.30;97.40;;;0.49;63.49;97907.50;5202750;28;20193;-54
2022/03/13 06:18:02;;;;;;;13.10;11.80;;;-0.20;97.10;;;0.57;63.31;97901.56;5202773;28;20218;-57
2022/03/13 06:20:35;;;;;;;14.33;12.67;;;-0.20;97.00;;;0.71;63.12;97908.81;5198962;28;20205;-57
2022/03/13 06:23:09;;;;;;;14.87;13.37;;;0.00;97.00;;;0.83;61.31;97904.97;5206572;28;20194;-55
2022/03/13 06:25:43;;;;;;;13.77;12.27;;;0.10;96.50;;;1.06;60.99;97907.13;5207695;28;20204;-56
2022/03/13 06:28:21;;;;;;;12.93;11.63;;;0.30;96.30;;;1.40;60.93;97905.22;5207456;28;20588;-56
2022/03/13 06:30:56;;;;;;;13.00;11.37;;;0.70;96.00;;;1.83;59.73;97910.78;5207837;28;20204;-55
2022/03/13 06:33:30;;;;;;;12.17;10.97;;;1.00;95.50;;;2.14;57.85;97906.88;5204969;28;20194;-57
2022/03/13 06:36:04;;;;;;;12.83;11.53;;;1.20;94.60;;;2.36;57.50;97913.09;5207208;28;20206;-52
2022/03/13 06:38:37;;;;;;;12.97;11.57;;;1.40;94.70;;;2.74;56.17;97902.09;5206959;28;20214;-54
2022/03/13 06:41:10;;;;;;;11.67;10.50;;;1.70;94.10;;;3.05;56.54;97913.22;5206183;28;20287;-56
2022/03/13 06:43:43;;;;;;;12.30;11.20;;;2.00;93.90;;;3.22;54.94;97907.13;5206777;28;20201;-57
2022/03/13 06:46:20;;;;;;;12.93;11.47;;;2.10;93.30;;;3.49;54.00;97901.91;5205903;28;20706;-55
2022/03/13 06:48:53;;;;;;;11.80;10.60;;;2.20;93.00;;;3.55;53.22;97910.00;5205263;28;20250;-58
2022/03/13 06:51:27;;;;;;;12.40;11.27;;;2.20;92.40;;;4.11;52.08;97919.66;5207234;28;20206;-57
2022/03/13 06:54:00;;;;;;;13.97;11.87;;;2.40;92.80;;;4.17;51.02;97915.09;5212886;28;20586;-57
2022/03/13 06:56:34;;;;;;;12.53;11.33;;;2.60;91.80;;;4.71;50.80;97902.63;5205987;28;20202;-56
2022/03/13 06:59:07;;;;;;;12.00;10.90;;;2.80;92.00;;;4.95;49.53;97909.66;5206551;28;20241;-57
2022/03/13 07:01:41;;;;;;;13.00;11.70;;;3.10;91.30;;;5.11;49.30;97916.78;5203692;28;20469;-56
2022/03/13 07:04:14;;;;;;;12.37;11.17;;;3.30;91.00;;;5.27;48.25;97910.41;5204197;28;20205;-58
2022/03/13 07:06:48;;;;;;;12.47;11.27;;;3.60;90.10;;;5.25;47.45;97917.00;5209487;28;20202;-56
2022/03/13 07:09:21;;;;;;;12.80;11.53;;;3.80;88.50;;;5.08;47.37;97910.59;5205335;28;20715;-56
2022/03/13 07:11:54;;;;;;;11.87;10.77;;;3.80;88.00;;;5.28;48.38;97910.50;5204309;28;20205;-56
2022/03/13 07:14:29;;;;;;;12.00;10.77;;;3.90;88.90;;;5.62;47.97;97918.22;5199154;28;20200;-56
2022/03/13 07:17:04;;;;;;;12.20;11.03;;;4.20;88.50;;;5.68;47.08;97918.66;5204007;28;21247;-58
2022/03/13 07:19:39;;;;;;;12.90;11.70;;;4.30;86.90;;;5.85;46.40;97923.38;5203790;28;20222;-56
2022/03/13 07:22:13;;;;;;;12.17;10.97;;;4.60;85.60;;;5.96;46.75;97930.97;5205052;28;20210;-55
2022/03/13 07:24:46;;;;;;;11.60;10.60;;;4.70;86.90;;;6.15;46.03;97918.88;5204435;28;20204;-58
2022/03/13 07:27:19;;;;;;;12.50;11.23;;;4.80;85.50;;;6.35;46.33;97922.88;5204047;28;20198;-54
2022/03/13 07:29:53;;;;;;;13.27;11.87;;;5.00;85.00;;;6.51;45.58;97920.72;5202509;28;20237;-56
2022/03/13 07:32:27;;;;;;;12.50;11.27;;;5.20;84.90;;;6.85;45.02;97912.13;5204612;28;20205;-57
2022/03/13 07:35:00;;;;;;;12.90;11.60;;;5.50;84.10;;;7.10;44.57;97904.63;5204474;28;20223;-57
2022/03/13 07:37:33;;;;;;;12.30;11.10;;;5.70;82.60;;;7.15;44.06;97906.72;5204763;28;20477;-57
2022/03/13 07:40:08;;;;;;;12.93;11.70;;;5.80;83.00;;;7.35;43.62;97913.16;5202316;28;20217;-56
2022/03/13 07:42:41;;;;;;;12.67;11.23;;;6.00;82.50;;;7.53;43.30;97908.50;5204434;28;20566;-57
2022/03/13 07:45:15;;;;;;;13.37;12.17;;;6.10;82.00;;;7.72;43.78;97904.69;5198585;28;20217;-57
2022/03/13 07:47:54;;;;;;;12.77;11.57;;;6.30;81.40;;;7.66;43.13;97905.13;5200815;28;20675;-57
2022/03/13 07:50:29;;;;;;;13.87;12.63;;;6.30;81.40;;;7.75;42.68;97904.88;5204696;28;20267;-58
2022/03/13 07:53:03;;;;;;;12.67;11.47;;;6.40;80.70;;;7.79;43.13;97902.66;5204981;28;20664;-57
2022/03/13 07:55:36;;;;;;;12.00;10.80;;;6.50;80.90;;;7.64;41.86;97906.69;5204167;28;20204;-58
2022/03/13 07:58:09;;;;;;;11.90;10.87;;;6.40;78.40;;;7.67;42.47;97902.72;5204494;28;20735;-57
2022/03/13 08:00:42;;;;;;;12.10;10.97;;;6.40;79.30;;;7.88;41.71;97904.97;5202909;28;20194;-57
2022/03/13 08:03:19;;;;;;;11.30;10.23;;;6.70;78.10;;;8.03;41.57;97898.34;5205696;28;20197;-57
2022/03/13 08:05:53;;;;;;;11.77;10.73;;;6.90;78.00;;;8.03;39.93;97903.44;5207050;28;20677;-56
2022/03/13 08:08:26;;;;;;;12.43;11.23;;;7.00;74.80;;;8.16;41.10;97894.97;5200555;28;20231;-53
2022/03/13 08:10:59;;;;;;;11.70;10.60;;;7.00;77.60;;;8.21;40.41;97903.81;5205998;28;20213;-53
2022/03/13 08:13:33;;;;;;;12.50;10.70;;;7.10;76.10;;;8.35;39.95;97903.06;5205910;28;20202;-56
2022/03/13 08:16:06;;;;;;;12.67;11.47;;;7.20;76.20;;;8.49;40.81;97901.44;5202688;28;20201;-54
2022/03/13 08:18:40;;;;;;;12.63;11.43;;;7.50;76.90;;;8.85;40.68;97896.09;5204266;28;20536;-58
2022/03/13 08:21:15;;;;;;;11.53;10.43;;;7.90;76.90;;;8.95;40.55;97904.41;5200267;28;20209;-57
2022/03/13 08:23:48;;;;;;;12.83;11.63;;;8.00;76.10;;;9.10;41.02;97901.97;5205916;28;20244;-58
2022/03/13 08:26:21;;;;;;;12.53;11.27;;;8.20;76.50;;;9.24;40.64;97897.72;5206243;28;20206;-57
2022/03/13 08:28:54;;;;;;;12.83;11.63;;;8.40;76.40;;;9.45;40.27;97905.84;5205338;28;20232;-58
2022/03/13 08:31:27;;;;;;;13.90;12.60;;;8.50;75.70;;;9.40;40.34;97905.53;5205784;28;20206;-57
2022/03/13 08:34:07;;;;;;;13.73;12.43;;;8.50;75.30;;;9.52;40.54;97904.53;5205938;28;20289;-56
2022/03/13 08:36:46;;;;;;;13.43;12.13;;;8.60;75.60;;;9.52;39.25;97900.31;5206134;28;20202;-58
2022/03/13 08:39:19;;;;;;;11.57;10.50;;;8.80;74.20;;;9.70;38.38;97903.13;5204613;28;20240;-58
2022/03/13 08:41:52;;;;;;;11.33;10.33;;;8.80;72.30;;;9.80;37.42;97902.88;5205120;28;20202;-58
2022/03/13 08:44:25;;;;;;;12.47;11.37;;;8.90;72.00;;;9.85;37.10;97893.84;5204917;28;20206;-56
2022/03/13 08:46:58;;;;;;;11.73;10.70;;;9.20;70.70;;;10.01;37.76;97902.41;5205567;28;20198;-59
2022/03/13 08:49:33;;;;;;;11.77;10.50;;;9.40;70.50;;;10.53;35.25;97885.97;5205019;28;20225;-57
2022/03/13 08:52:07;;;;;;;12.20;11.07;;;9.90;67.90;;;10.74;35.39;97888.84;5204607;28;20215;-58
2022/03/13 08:54:40;;;;;;;12.30;11.20;;;10.20;66.30;;;10.89;35.52;97885.41;5205059;28;20197;-58
2022/03/13 08:57:13;;;;;;;12.10;10.83;;;10.20;67.00;;;10.94;34.08;97895.09;5205298;28;20201;-57
2022/03/13 08:59:46;;;;;;;12.30;11.10;;;10.30;65.30;;;10.99;34.05;97895.34;5205459;28;20224;-57
2022/03/13 09:02:22;;;;;;;13.23;12.03;;;10.30;63.90;;;10.90;32.79;97887.16;5205226;28;20194;-58
2022/03/13 09:04:57;;;;;;;13.93;12.53;;;10.00;64.30;;;11.14;32.77;97885.97;5204519;28;20205;-55
2022/03/13 09:07:30;;;;;;;12.77;11.57;;;10.30;63.70;;;11.23;32.89;97877.91;5205654;28;20699;-56
2022/03/13 09:10:07;;;;;;;12.47;11.27;;;10.50;64.10;;;11.58;32.85;97881.50;5204699;28;20237;-55
2022/03/13 09:12:41;;;;;;;12.20;11.07;;;11.00;63.50;;;11.71;32.21;97883.91;5205154;28;20198;-58
2022/03/13 09:15:14;;;;;;;12.27;11.07;;;11.10;62.50;;;11.72;32.75;97876.28;5203338;28;20206;-58
2022/03/13 09:17:53;;;;;;;12.83;11.67;;;11.10;62.40;;;11.84;31.38;97876.06;5204428;28;20208;-58
2022/03/13 09:20:27;;;;;;;13.20;11.50;;;11.30;60.30;;;11.63;33.51;97865.56;5204799;28;20196;-57
2022/03/13 09:23:00;;;;;;;13.77;12.37;;;10.90;63.50;;;11.79;33.14;97861.25;5204867;28;20576;-58
2022/03/13 09:25:34;;;;;;;13.10;11.80;;;11.20;63.70;;;12.07;32.75;97863.59;5199038;28;20202;-58
2022/03/13 09:28:08;;;;;;;13.47;12.07;;;11.50;63.00;;;12.39;31.95;97862.69;5204829;28;20225;-56
2022/03/13 09:30:41;;;;;;;13.70;12.47;;;11.80;61.20;;;12.61;31.93;97865.47;5204736;28;20218;-58
2022/03/13 09:33:15;;;;;;;14.02;12.55;;;12.10;60.90;;;12.68;31.65;97858.97;5204349;28;20587;-59
2022/03/13 09:35:51;;;;;;;14.73;13.23;;;12.20;60.50;;;12.57;31.93;97861.00;5204144;28;20654;-57
2022/03/13 09:38:25;;;;;;;13.57;12.20;;;12.00;60.90;;;12.86;31.89;97866.69;5204430;28;20225;-57
2022/03/13 09:40:58;;;;;;;13.98;12.68;;;12.30;60.70;;;13.01;31.07;97869.97;5204580;28;20250;-59
2022/03/13 09:43:31;;;;;;;14.60;13.07;;;12.40;60.10;;;13.10;31.49;97860.94;5204372;28;20202;-58
2022/03/13 09:46:04;;;;;;;12.57;11.27;;;12.50;60.90;;;13.27;31.63;97862.66;5202277;28;20205;-60
2022/03/13 09:48:38;;;;;;;13.75;12.35;;;12.60;60.30;;;13.38;30.87;97853.75;5202494;28;20217;-58
2022/03/13 09:51:12;;;;;;;14.35;13.00;;;12.80;60.10;;;13.20;31.58;97850.31;5202641;28;20563;-58
2022/03/13 09:53:46;;;;;;;14.15;12.85;;;12.70;60.70;;;13.38;31.58;97860.59;5203479;28;20200;-57
2022/03/13 09:56:19;;;;;;;14.60;13.10;;;12.70;61.10;;;13.54;31.02;97860.47;5202647;28;20229;-60
2022/03/13 09:58:52;;;;;;;14.57;13.07;;;12.80;60.50;;;13.49;31.33;97852.56;5199915;28;20218;-57
2022/03/13 10:01:25;;;;;;;14.75;13.32;;;12.80;60.30;;;13.69;31.28;97857.72;5201753;28;20201;-59
2022/03/13 10:03:59;;;;;;;14.93;13.43;;;13.00;60.50;;;13.75;31.85;97856.28;5201679;28;20198;-59
2022/03/13 10:07:00;;;;;;;15.30;13.85;;;13.00;60.60;;;13.59;30.97;97848.72;5202850;28;20209;-58
2022/03/13 10:09:35;;;;;;;17.08;15.32;;;12.90;59.70;;;13.60;31.06;97844.47;5202972;28;20222;-59
2022/03/13 10:12:12;;;;;;;17.27;14.60;;;12.90;61.40;;;13.68;31.53;97831.16;5202783;28;20580;-58
2022/03/13 10:15:01;;;;;;;17.25;15.50;;;13.00;61.10;;;13.73;31.55;97826.19;5205748;28;20204;-59
2022/03/13 10:17:37;;;;;;;19.05;16.45;;;13.10;61.10;;;13.86;32.09;97822.50;5202847;28;20198;-60
2022/03/13 10:20:17;;;;;;;19.98;17.58;;;13.30;61.10;;;14.04;31.50;97823.28;5202818;28;20285;-56
2022/03/13 10:23:09;;;;;;;19.60;17.52;;;13.40;60.70;;;14.09;32.12;97824.34;5201750;28;20206;-55
2022/03/13 10:25:45;;;;;;;19.13;17.10;;;13.50;61.60;;;14.19;32.04;97818.81;5203432;28;20575;-58
2022/03/13 10:28:21;;;;;;;19.95;17.85;;;13.60;62.40;;;14.22;32.75;97812.00;5201924;28;20229;-59
2022/03/13 10:31:13;;;;;;;21.38;18.30;;;13.70;61.50;;;14.20;31.57;97815.41;5202946;28;20564;-58
2022/03/13 10:34:01;;;;;;;19.95;17.80;;;13.60;61.80;;;14.38;31.89;97815.28;5201926;28;20576;-59
2022/03/13 10:36:35;;;;;;;18.33;16.42;;;13.80;61.50;;;14.56;31.15;97810.03;5203395;28;20202;-60
2022/03/13 10:39:20;;;;;;;20.52;17.45;;;14.00;60.70;;;14.61;30.60;97807.66;5201074;28;20221;-59
2022/03/13 10:42:02;;;;;;;19.92;17.42;;;13.80;60.20;;;14.79;30.92;97808.44;5202987;28;20840;-57
2022/03/13 10:44:45;;;;;;;18.90;17.02;;;14.10;60.50;;;14.83;30.42;97802.56;5202628;28;20224;-59
2022/03/13 10:47:25;;;;;;;21.38;19.08;;;14.20;59.70;;;14.84;31.00;97795.72;5200814;28;20595;-59